createdAt,value
2022-10-18T00:04:45.054Z,64.50
2022-10-18T00:09:47.733Z,64.40
2022-10-18T00:14:51.793Z,64.50
2022-10-18T00:19:54.371Z,64.50
2022-10-18T00:24:57.053Z,64.60
2022-10-18T00:30:01.138Z,64.60
2022-10-18T00:35:04.002Z,64.60
2022-10-18T00:40:07.458Z,64.50
2022-10-18T00:45:22.197Z,64.60
2022-10-18T00:50:25.720Z,64.40
2022-10-18T00:55:28.749Z,64.70
2022-10-18T01:00:32.839Z,64.70
2022-10-18T01:05:38.434Z,64.40
2022-10-18T01:10:43.612Z,64.50
2022-10-18T01:15:51.177Z,64.60
2022-10-18T01:21:08.685Z,64.70
2022-10-18T01:26:18.049Z,64.50
2022-10-18T01:31:23.683Z,64.70
2022-10-18T01:36:28.382Z,64.60
2022-10-18T01:41:30.972Z,64.70
2022-10-18T01:46:35.052Z,64.50
2022-10-18T01:51:37.679Z,64.50
2022-10-18T01:56:44.126Z,64.80
2022-10-18T02:01:53.106Z,64.60
2022-10-18T02:06:58.528Z,64.70
2022-10-18T02:12:02.052Z,64.50
2022-10-18T02:17:08.082Z,64.50
2022-10-18T02:22:11.649Z,64.70
2022-10-18T02:27:14.330Z,64.80
2022-10-18T02:32:20.738Z,64.50
2022-10-18T02:37:24.137Z,64.60
2022-10-18T02:42:26.779Z,64.60
2022-10-18T02:47:30.868Z,64.40
2022-10-18T02:52:33.769Z,64.70
2022-10-18T02:57:36.406Z,64.50
2022-10-18T03:02:40.346Z,64.30
2022-10-18T03:07:43.008Z,64.30
2022-10-18T03:12:45.590Z,64.40
2022-10-18T03:17:49.505Z,64.40
2022-10-18T03:22:52.107Z,64.40
2022-10-18T03:27:54.673Z,64.40
2022-10-18T03:32:58.597Z,64.40
2022-10-18T03:38:01.171Z,64.30
2022-10-18T03:43:03.762Z,64.50
2022-10-18T03:48:07.827Z,64.40
2022-10-18T03:53:10.436Z,64.20
2022-10-18T03:58:13.007Z,64.30
2022-10-18T04:03:16.941Z,64.50
2022-10-18T04:08:19.850Z,64.20
2022-10-18T04:13:22.463Z,64.40
2022-10-18T04:18:26.414Z,64.20
2022-10-18T04:23:30.362Z,64.10
2022-10-18T04:28:34.809Z,63.90
2022-10-18T04:33:39.136Z,63.80
2022-10-18T04:38:41.733Z,64.00
2022-10-18T04:48:53.160Z,64.30
2022-10-18T04:53:55.781Z,64.00
2022-10-18T04:58:59.067Z,64.10
2022-10-18T05:04:03.197Z,64.00
2022-10-18T05:09:05.825Z,64.20
2022-10-18T05:14:10.067Z,64.20
2022-10-18T05:19:14.116Z,64.10
2022-10-18T05:24:16.729Z,64.00
2022-10-18T05:29:19.395Z,64.00
2022-10-18T05:34:24.635Z,64.20
2022-10-18T05:39:27.290Z,64.10
2022-10-18T05:44:29.873Z,64.00
2022-10-18T05:49:33.973Z,63.90
2022-10-18T05:54:36.627Z,64.00
2022-10-18T05:59:39.232Z,63.80
2022-10-18T06:04:43.696Z,63.90
2022-10-18T06:09:46.273Z,63.90
2022-10-18T06:14:49.331Z,63.90
2022-10-18T06:19:53.255Z,63.90
2022-10-18T06:24:57.289Z,63.80
2022-10-18T06:30:00.020Z,63.80
2022-10-18T06:35:04.077Z,63.80
2022-10-18T06:40:07.396Z,63.80
2022-10-18T06:45:10.429Z,65.70
2022-10-18T06:50:14.377Z,65.60
2022-10-18T06:55:17.102Z,65.30
2022-10-18T07:00:20.242Z,65.30
2022-10-18T07:05:24.357Z,65.50
2022-10-18T07:10:27.029Z,65.60
2022-10-18T07:15:29.757Z,65.80
2022-10-18T07:20:33.810Z,65.80
2022-10-18T07:25:36.803Z,66.00
2022-10-18T07:30:39.646Z,66.60
2022-10-18T07:35:43.586Z,67.40
2022-10-18T07:40:46.299Z,67.10
2022-10-18T07:45:52.570Z,66.80
2022-10-18T07:50:58.562Z,67.10
2022-10-18T07:56:04.567Z,66.50
2022-10-18T08:01:10.333Z,65.20
2022-10-18T08:06:16.271Z,65.60
2022-10-18T08:11:19.978Z,65.40
2022-10-18T08:16:23.699Z,66.10
2022-10-18T08:21:30.757Z,66.30
2022-10-18T08:26:33.455Z,66.20
2022-10-18T08:31:36.050Z,66.10
2022-10-18T08:36:40.114Z,66.30
2022-10-18T08:41:57.598Z,66.20
2022-10-18T08:47:01.438Z,65.90
2022-10-18T08:52:11.898Z,66.00
2022-10-18T08:57:17.976Z,65.80
2022-10-18T09:02:29.958Z,65.50
2022-10-18T09:07:52.965Z,65.90
2022-10-18T09:13:02.910Z,66.00
2022-10-18T09:18:13.142Z,65.50
2022-10-18T09:23:20.119Z,65.90
2022-10-18T09:28:28.523Z,66.00
2022-10-18T09:33:36.556Z,65.90
2022-10-18T09:38:43.671Z,65.80
2022-10-18T09:43:51.718Z,65.50
2022-10-18T09:48:56.896Z,65.70
2022-10-18T09:54:18.595Z,65.80
2022-10-18T09:59:30.572Z,65.60
2022-10-18T10:04:33.376Z,65.60
2022-10-18T10:09:38.178Z,65.50
2022-10-18T10:14:45.132Z,65.30
2022-10-18T10:19:56.707Z,65.20
2022-10-18T10:25:00.273Z,65.00
2022-10-18T10:30:07.378Z,65.00
2022-10-18T10:35:33.885Z,64.80
2022-10-18T10:40:47.546Z,64.80
2022-10-18T10:46:00.818Z,64.80
2022-10-18T10:51:05.582Z,64.80
2022-10-18T10:56:15.952Z,64.70
2022-10-18T11:01:21.721Z,64.50
2022-10-18T11:06:30.706Z,64.60
2022-10-18T11:11:35.041Z,64.70
2022-10-18T11:16:43.450Z,64.60
2022-10-18T11:21:46.253Z,64.30
2022-10-18T11:26:53.782Z,64.50
2022-10-18T11:32:02.925Z,64.50
2022-10-18T11:37:27.127Z,64.30
2022-10-18T11:42:39.801Z,64.50
2022-10-18T11:47:52.311Z,64.70
2022-10-18T11:53:03.352Z,64.90
2022-10-18T11:58:13.580Z,64.90
2022-10-18T12:03:28.983Z,64.80
2022-10-18T12:08:34.327Z,65.00
2022-10-18T12:13:39.870Z,65.10
2022-10-18T12:18:47.963Z,65.20
2022-10-18T12:23:52.587Z,65.40
2022-10-18T12:28:59.229Z,65.30
2022-10-18T12:34:10.109Z,64.70
2022-10-18T12:39:28.274Z,65.10
2022-10-18T12:44:40.810Z,65.00
2022-10-18T12:49:45.159Z,65.00
2022-10-18T12:55:03.332Z,65.10
2022-10-18T13:00:06.746Z,64.80
2022-10-18T13:05:40.995Z,64.90
2022-10-18T13:10:48.343Z,64.90
2022-10-18T13:15:54.754Z,64.80
2022-10-18T13:21:02.470Z,64.30
2022-10-18T13:26:14.623Z,64.00
2022-10-18T13:31:21.656Z,64.50
2022-10-18T13:36:28.013Z,63.70
2022-10-18T13:41:35.448Z,62.80
2022-10-18T13:46:57.160Z,63.70
2022-10-18T13:52:04.031Z,63.00
2022-10-18T13:57:13.800Z,64.10
2022-10-18T14:02:49.976Z,63.60
2022-10-18T14:07:51.854Z,63.50
2022-10-18T14:13:01.890Z,63.50
2022-10-18T14:18:07.419Z,63.60
2022-10-18T14:23:13.665Z,63.60
2022-10-18T14:28:19.701Z,63.70
2022-10-18T14:33:31.030Z,63.10
2022-10-18T14:38:33.970Z,62.80
2022-10-18T14:43:37.915Z,62.50
2022-10-18T14:48:40.539Z,62.70
2022-10-18T14:53:43.416Z,62.50
2022-10-18T14:58:47.539Z,62.60
2022-10-18T15:03:50.377Z,62.70
2022-10-18T15:08:55.198Z,62.50
2022-10-18T15:14:03.050Z,62.40
2022-10-18T15:19:06.535Z,62.60
2022-10-18T15:24:25.264Z,62.70
2022-10-18T15:29:43.408Z,63.00
2022-10-18T15:34:46.858Z,62.90
2022-10-18T15:39:49.467Z,63.10
2022-10-18T15:44:53.401Z,63.20
2022-10-18T15:49:56.507Z,63.00
2022-10-18T15:54:59.494Z,63.20
2022-10-18T16:00:06.254Z,63.60
2022-10-18T16:05:15.085Z,64.00
2022-10-18T16:10:18.278Z,64.30
2022-10-18T16:15:22.253Z,64.40
2022-10-18T16:20:27.069Z,64.70
2022-10-18T16:25:29.830Z,64.10
2022-10-18T16:30:34.996Z,64.20
2022-10-18T16:35:37.622Z,64.90
2022-10-18T16:40:41.366Z,64.00
2022-10-18T16:45:45.739Z,63.70
2022-10-18T16:50:48.537Z,63.70
2022-10-18T16:55:52.425Z,63.30
2022-10-18T17:00:56.601Z,63.60
2022-10-18T17:05:59.193Z,63.70
2022-10-18T17:11:02.378Z,63.80
2022-10-18T17:16:06.604Z,63.90
2022-10-18T17:21:09.277Z,64.00
2022-10-18T17:26:28.293Z,64.00
2022-10-18T17:31:33.625Z,64.10
2022-10-18T17:36:36.228Z,64.00
2022-10-18T17:41:38.899Z,64.20
2022-10-18T17:46:43.034Z,64.20
2022-10-18T17:51:46.343Z,64.30
2022-10-18T17:56:52.203Z,64.10
2022-10-18T18:01:57.690Z,64.40
2022-10-18T18:07:00.342Z,64.40
2022-10-18T18:12:03.010Z,64.60
2022-10-18T18:17:07.231Z,64.70
2022-10-18T18:22:10.416Z,64.80
2022-10-18T18:27:13.070Z,64.70
2022-10-18T18:32:17.008Z,64.60
2022-10-18T18:37:19.656Z,64.80
2022-10-18T18:42:22.556Z,65.00
2022-10-18T18:47:27.594Z,65.10
2022-10-18T18:52:30.263Z,65.20
2022-10-18T18:57:33.310Z,65.10
2022-10-18T19:02:37.469Z,65.10
2022-10-18T19:07:40.143Z,65.20
2022-10-18T19:12:42.870Z,65.20
2022-10-18T19:17:46.857Z,65.10
2022-10-18T19:22:49.486Z,65.10
2022-10-18T19:27:52.062Z,65.40
2022-10-18T19:33:01.177Z,65.10
2022-10-18T19:38:06.101Z,65.30
2022-10-18T19:43:08.755Z,65.30
2022-10-18T19:48:13.559Z,65.10
2022-10-18T19:53:16.296Z,65.00
2022-10-18T19:58:18.990Z,65.30
2022-10-18T20:03:23.190Z,65.20
2022-10-18T20:08:26.198Z,65.20
2022-10-18T20:13:28.797Z,65.10
2022-10-18T20:18:32.717Z,65.00
2022-10-18T20:23:35.953Z,65.00
2022-10-18T20:28:39.035Z,64.60
2022-10-18T20:33:43.386Z,64.90
2022-10-18T20:38:47.098Z,64.70
2022-10-18T20:43:52.782Z,64.90
2022-10-18T20:48:56.736Z,64.70
2022-10-18T20:54:00.005Z,64.80
2022-10-18T20:59:05.282Z,64.80
2022-10-18T21:04:09.940Z,64.80
2022-10-18T21:09:13.109Z,64.60
2022-10-18T21:14:16.806Z,64.60
2022-10-18T21:19:21.569Z,64.70
2022-10-18T21:24:25.280Z,64.80
2022-10-18T21:29:30.718Z,64.50
2022-10-18T21:34:34.894Z,64.70
2022-10-18T21:39:37.537Z,64.60
2022-10-18T21:44:40.137Z,64.60
2022-10-18T21:49:44.070Z,64.60
2022-10-18T21:54:46.672Z,64.50
2022-10-18T21:59:49.254Z,64.70
2022-10-18T22:04:53.190Z,64.60
2022-10-18T22:09:55.805Z,64.50
2022-10-18T22:14:58.406Z,64.50
2022-10-18T22:20:02.399Z,64.60
2022-10-18T22:25:05.738Z,64.40
2022-10-18T22:30:08.761Z,64.30
2022-10-18T22:35:12.722Z,64.60
2022-10-18T22:40:15.393Z,64.30
2022-10-18T22:45:18.075Z,64.00
2022-10-18T22:50:22.002Z,64.20
2022-10-18T22:55:24.792Z,64.10
2022-10-18T23:00:27.432Z,63.90
2022-10-18T23:05:31.421Z,63.80
2022-10-18T23:10:34.166Z,63.80
2022-10-18T23:15:38.848Z,63.80
2022-10-18T23:20:42.834Z,63.60
2022-10-18T23:25:46.063Z,63.40
2022-10-18T23:30:49.404Z,63.60
2022-10-18T23:35:53.825Z,63.50
2022-10-18T23:40:56.428Z,63.30
2022-10-18T23:45:59.042Z,63.50
2022-10-18T23:51:03.225Z,63.30
2022-10-18T23:56:06.646Z,63.10
